Arapahoe, Nebraska
Current Conditions -  °F | °C
As of 9:35 AM on Sunday 21 Dec 2014 (Local Time) from KHDE Reporting Station
Haze Haze  
Wind Chill: 22°   Ceiling: Unl
Heat Index: 33°   Visibility: 3mi
Dew Point: 31°   Wind: 17mph
Humidity: 93%   Direction: 200°SSW
Pressure: 29.76"   Gusts: NA
Location:  40.3°N, 99.9°W
Report Text: KHDE 211535Z AUTO 20015KT 3SM BR CLR 01/00 A2976 RMK AO2 T00051005
Loading
Personal Weather Stations






























Interactive Weather Map New forecast layout! Learn more

10-Day Weather Forecast

Advertisements
Track Severe Weather on mobile